Terminal Aerodrome Forecast
Issued by NWS

Home | Current Version | Previous Version | Graphics & Text | Print | Product List | Glossary On
Versions: 1 2 3 4 5 6 7 8 9 10 11 12 13 14 15 16 17 18 19 20 21 22
000
FTUS42 KMHX 261029 AAB
TAFPGV
TAF AMD
KPGV 261029Z 2610/2706 16007KT P6SM VCSH SCT005 BKN025 OVC050
     FM261500 21013G23KT 5SM SHRA SCT010 OVC020
     FM261800 21014G24KT P6SM BKN050
     FM270000 20008KT P6SM OVC100
      AMD LTD TO CLD VIS AND WIND=

USA.gov is the U.S. government's official web portal to all federal, state and local government web resources and services.